sensor_id;sensor_type;location;lat;lon;timestamp;pressure;altitude;pressure_sealevel;temperature;humidity
8894;BME280;4483;48.622;9.230;2023-02-12T00:00:59;99844.56;;;3.89;88.33
8894;BME280;4483;48.622;9.230;2023-02-12T00:03:25;99847.13;;;3.90;88.30
8894;BME280;4483;48.622;9.230;2023-02-12T00:05:53;99843.78;;;3.91;88.26
8894;BME280;4483;48.622;9.230;2023-02-12T00:08:20;99851.41;;;3.90;88.45
8894;BME280;4483;48.622;9.230;2023-02-12T00:10:46;99847.13;;;3.89;88.68
8894;BME280;4483;48.622;9.230;2023-02-12T00:13:13;99843.69;;;3.88;88.62
8894;BME280;4483;48.622;9.230;2023-02-12T00:15:41;99853.06;;;3.88;88.60
8894;BME280;4483;48.622;9.230;2023-02-12T00:18:08;99835.91;;;3.81;88.68
8894;BME280;4483;48.622;9.230;2023-02-12T00:20:36;99857.34;;;3.90;89.03
8894;BME280;4483;48.622;9.230;2023-02-12T00:23:04;99849.72;;;3.92;88.80
8894;BME280;4483;48.622;9.230;2023-02-12T00:25:31;99831.69;;;3.81;89.11
8894;BME280;4483;48.622;9.230;2023-02-12T00:27:58;99851.47;;;3.94;88.97
8894;BME280;4483;48.622;9.230;2023-02-12T00:30:25;99857.47;;;3.96;89.15
8894;BME280;4483;48.622;9.230;2023-02-12T00:32:51;99853.22;;;3.97;89.38
8894;BME280;4483;48.622;9.230;2023-02-12T00:35:18;99855.81;;;3.98;89.25
8894;BME280;4483;48.622;9.230;2023-02-12T00:37:44;99856.66;;;3.99;89.49
8894;BME280;4483;48.622;9.230;2023-02-12T00:40:12;99863.50;;;4.01;89.65
8894;BME280;4483;48.622;9.230;2023-02-12T00:42:39;99858.47;;;4.04;89.77
8894;BME280;4483;48.622;9.230;2023-02-12T00:45:07;99849.06;;;4.03;90.05
8894;BME280;4483;48.622;9.230;2023-02-12T00:47:33;99856.81;;;4.08;89.66
8894;BME280;4483;48.622;9.230;2023-02-12T00:50:00;99839.75;;;4.04;89.57
8894;BME280;4483;48.622;9.230;2023-02-12T00:52:26;99858.56;;;4.12;89.68
8894;BME280;4483;48.622;9.230;2023-02-12T00:54:53;99860.31;;;4.13;89.56
8894;BME280;4483;48.622;9.230;2023-02-12T00:57:21;99855.19;;;4.12;89.94
8894;BME280;4483;48.622;9.230;2023-02-12T00:59:47;99860.28;;;4.12;89.70
8894;BME280;4483;48.622;9.230;2023-02-12T01:02:14;99867.88;;;4.08;89.73
8894;BME280;4483;48.622;9.230;2023-02-12T01:04:42;99865.28;;;4.07;90.02
8894;BME280;4483;48.622;9.230;2023-02-12T01:07:09;99871.16;;;4.03;89.59
8894;BME280;4483;48.622;9.230;2023-02-12T01:09:36;99869.53;;;4.06;89.91
8894;BME280;4483;48.622;9.230;2023-02-12T01:12:03;99864.41;;;4.05;90.12
8894;BME280;4483;48.622;9.230;2023-02-12T01:14:31;99859.25;;;4.02;89.95
8894;BME280;4483;48.622;9.230;2023-02-12T01:16:58;99858.47;;;4.06;90.00
8894;BME280;4483;48.622;9.230;2023-02-12T01:19:24;99861.94;;;4.08;89.80
8894;BME280;4483;48.622;9.230;2023-02-12T01:21:52;99868.72;;;4.09;90.36
8894;BME280;4483;48.622;9.230;2023-02-12T01:24:18;99873.06;;;4.15;90.51
8894;BME280;4483;48.622;9.230;2023-02-12T01:26:45;99822.59;;;3.95;90.50
8894;BME280;4483;48.622;9.230;2023-02-12T01:29:11;99865.44;;;4.16;90.35
8894;BME280;4483;48.622;9.230;2023-02-12T01:31:39;99867.19;;;4.17;90.25
8894;BME280;4483;48.622;9.230;2023-02-12T01:34:08;99867.09;;;4.14;89.88
8894;BME280;4483;48.622;9.230;2023-02-12T01:36:35;99868.84;;;4.15;90.36
8894;BME280;4483;48.622;9.230;2023-02-12T01:39:02;99864.53;;;4.13;90.36
8894;BME280;4483;48.622;9.230;2023-02-12T01:41:31;99866.19;;;4.09;90.76
8894;BME280;4483;48.622;9.230;2023-02-12T01:44:06;99869.53;;;4.06;90.36
8894;BME280;4483;48.622;9.230;2023-02-12T01:46:33;99867.88;;;4.08;90.43
8894;BME280;4483;48.622;9.230;2023-02-12T01:49:02;99856.72;;;4.02;90.55
8894;BME280;4483;48.622;9.230;2023-02-12T01:51:31;99871.31;;;4.10;90.61
8894;BME280;4483;48.622;9.230;2023-02-12T01:54:00;99865.38;;;4.12;90.69
8894;BME280;4483;48.622;9.230;2023-02-12T01:56:28;99871.41;;;4.15;90.80
8894;BME280;4483;48.622;9.230;2023-02-12T01:58:55;99860.28;;;4.12;90.93
8894;BME280;4483;48.622;9.230;2023-02-12T02:01:26;99865.44;;;4.16;91.05
8894;BME280;4483;48.622;9.230;2023-02-12T02:03:56;99861.19;;;4.15;90.82
8894;BME280;4483;48.622;9.230;2023-02-12T02:06:27;99862.88;;;4.15;90.86
8894;BME280;4483;48.622;9.230;2023-02-12T02:08:55;99857.75;;;4.13;90.75
8894;BME280;4483;48.622;9.230;2023-02-12T02:11:22;99847.50;;;4.10;91.00
8894;BME280;4483;48.622;9.230;2023-02-12T02:14:07;99850.88;;;4.09;91.27
8894;BME280;4483;48.622;9.230;2023-02-12T02:16:58;99850.09;;;4.13;91.11
8894;BME280;4483;48.622;9.230;2023-02-12T02:19:39;99845.00;;;4.13;91.08
8894;BME280;4483;48.622;9.230;2023-02-12T02:22:23;99845.00;;;4.13;91.23
8894;BME280;4483;48.622;9.230;2023-02-12T02:28:34;99841.50;;;4.08;91.51
8894;BME280;4483;48.622;9.230;2023-02-12T02:31:13;99814.09;;;3.95;91.57
8894;BME280;4483;48.622;9.230;2023-02-12T02:33:52;99846.69;;;4.13;91.12
8894;BME280;4483;48.622;9.230;2023-02-12T02:36:26;99840.72;;;4.12;91.28
8894;BME280;4483;48.622;9.230;2023-02-12T02:39:02;99839.03;;;4.13;91.82
8894;BME280;4483;48.622;9.230;2023-02-12T02:41:34;99835.69;;;4.15;91.37
8894;BME280;4483;48.622;9.230;2023-02-12T02:44:05;99830.56;;;4.15;91.46
8894;BME280;4483;48.622;9.230;2023-02-12T02:46:38;99825.38;;;4.10;91.12
8894;BME280;4483;48.622;9.230;2023-02-12T02:49:07;99826.16;;;4.06;91.28
8894;BME280;4483;48.622;9.230;2023-02-12T02:51:39;99827.00;;;4.04;91.69
8894;BME280;4483;48.622;9.230;2023-02-12T02:54:08;99835.50;;;4.04;91.63
8894;BME280;4483;48.622;9.230;2023-02-12T02:56:40;99821.03;;;4.03;91.93
8894;BME280;4483;48.622;9.230;2023-02-12T02:59:10;99827.03;;;4.08;91.87
8894;BME280;4483;48.622;9.230;2023-02-12T03:01:43;99831.31;;;4.08;91.82
8894;BME280;4483;48.622;9.230;2023-02-12T03:04:14;99825.34;;;4.07;91.75
8894;BME280;4483;48.622;9.230;2023-02-12T03:06:55;99837.25;;;4.08;91.88
8894;BME280;4483;48.622;9.230;2023-02-12T03:09:26;99826.22;;;4.08;91.99
8894;BME280;4483;48.622;9.230;2023-02-12T03:11:57;99834.63;;;4.04;92.03
8894;BME280;4483;48.622;9.230;2023-02-12T03:14:28;99830.34;;;4.03;91.97
8894;BME280;4483;48.622;9.230;2023-02-12T03:17:01;99830.34;;;4.03;91.95
8894;BME280;4483;48.622;9.230;2023-02-12T03:19:31;99834.63;;;4.04;92.41
8894;BME280;4483;48.622;9.230;2023-02-12T03:22:03;99838.00;;;4.03;92.20
8894;BME280;4483;48.622;9.230;2023-02-12T03:24:32;99843.97;;;4.03;92.24
8894;BME280;4483;48.622;9.230;2023-02-12T03:27:06;99838.91;;;4.05;92.34
8894;BME280;4483;48.622;9.230;2023-02-12T03:29:34;99834.63;;;4.04;92.72
8894;BME280;4483;48.622;9.230;2023-02-12T03:32:11;99849.16;;;4.08;92.73
8894;BME280;4483;48.622;9.230;2023-02-12T03:34:47;99845.78;;;4.10;92.62
8894;BME280;4483;48.622;9.230;2023-02-12T03:37:18;99852.63;;;4.10;92.48
8894;BME280;4483;48.622;9.230;2023-02-12T03:39:52;99847.50;;;4.10;92.71
8894;BME280;4483;48.622;9.230;2023-02-12T03:42:26;99848.38;;;4.12;92.82
8894;BME280;4483;48.622;9.230;2023-02-12T03:45:00;99837.34;;;4.13;92.74
8894;BME280;4483;48.622;9.230;2023-02-12T03:47:38;99841.59;;;4.14;93.06
8894;BME280;4483;48.622;9.230;2023-02-12T03:50:10;99840.78;;;4.15;92.84
8894;BME280;4483;48.622;9.230;2023-02-12T03:52:39;99844.19;;;4.16;92.62
8894;BME280;4483;48.622;9.230;2023-02-12T03:55:06;99849.31;;;4.16;92.84
8894;BME280;4483;48.622;9.230;2023-02-12T03:57:38;99850.13;;;4.16;92.70
8894;BME280;4483;48.622;9.230;2023-02-12T04:00:09;99845.91;;;4.17;93.06
8894;BME280;4483;48.622;9.230;2023-02-12T04:02:38;99850.22;;;4.19;93.05
8894;BME280;4483;48.622;9.230;2023-02-12T04:05:06;99840.00;;;4.19;93.16
8894;BME280;4483;48.622;9.230;2023-02-12T04:07:34;99843.34;;;4.15;92.69
8894;BME280;4483;48.622;9.230;2023-02-12T04:10:02;99858.69;;;4.18;92.70
8894;BME280;4483;48.622;9.230;2023-02-12T04:12:39;99853.56;;;4.17;93.09
8894;BME280;4483;48.622;9.230;2023-02-12T04:15:34;99856.09;;;4.17;93.13
8894;BME280;4483;48.622;9.230;2023-02-12T04:18:08;99859.50;;;4.16;93.09
8894;BME280;4483;48.622;9.230;2023-02-12T04:20:47;99850.09;;;4.13;93.59
8894;BME280;4483;48.622;9.230;2023-02-12T04:23:24;99863.75;;;4.17;93.40
8894;BME280;4483;48.622;9.230;2023-02-12T04:26:03;99862.00;;;4.14;93.24
8894;BME280;4483;48.622;9.230;2023-02-12T04:28:42;99869.66;;;4.14;93.12
8894;BME280;4483;48.622;9.230;2023-02-12T04:31:12;99872.22;;;4.14;93.26
8894;BME280;4483;48.622;9.230;2023-02-12T04:33:48;99867.06;;;4.11;93.53
8894;BME280;4483;48.622;9.230;2023-02-12T04:36:20;99868.84;;;4.15;93.16
8894;BME280;4483;48.622;9.230;2023-02-12T04:38:51;99864.59;;;4.16;93.51
8894;BME280;4483;48.622;9.230;2023-02-12T04:41:19;99862.88;;;4.16;93.72
8894;BME280;4483;48.622;9.230;2023-02-12T04:43:46;99868.00;;;4.18;93.86
8894;BME280;4483;48.622;9.230;2023-02-12T04:46:12;99864.66;;;4.19;93.83
8894;BME280;4483;48.622;9.230;2023-02-12T04:48:51;99868.09;;;4.21;94.12
8894;BME280;4483;48.622;9.230;2023-02-12T04:51:18;99866.44;;;4.23;93.92
8894;BME280;4483;48.622;9.230;2023-02-12T04:53:45;99872.31;;;4.20;93.81
8894;BME280;4483;48.622;9.230;2023-02-12T04:56:11;99867.25;;;4.23;93.70
8894;BME280;4483;48.622;9.230;2023-02-12T04:58:38;99863.88;;;4.23;94.13
8894;BME280;4483;48.622;9.230;2023-02-12T05:01:05;99859.56;;;4.20;93.53
8894;BME280;4483;48.622;9.230;2023-02-12T05:03:32;99860.47;;;4.24;93.85
8894;BME280;4483;48.622;9.230;2023-02-12T05:06:02;99864.72;;;4.23;93.87
8894;BME280;4483;48.622;9.230;2023-02-12T05:08:29;99868.13;;;4.24;93.99
8894;BME280;4483;48.622;9.230;2023-02-12T05:10:56;99871.50;;;4.21;93.54
8894;BME280;4483;48.622;9.230;2023-02-12T05:13:22;99874.84;;;4.19;93.79
8894;BME280;4483;48.622;9.230;2023-02-12T05:15:49;99872.31;;;4.19;94.00
8894;BME280;4483;48.622;9.230;2023-02-12T05:18:15;99871.41;;;4.15;93.67
8894;BME280;4483;48.622;9.230;2023-02-12T05:20:42;99862.06;;;4.16;93.77
8894;BME280;4483;48.622;9.230;2023-02-12T05:23:10;99868.00;;;4.16;94.04
8894;BME280;4483;48.622;9.230;2023-02-12T05:25:36;99863.75;;;4.15;94.01
8894;BME280;4483;48.622;9.230;2023-02-12T05:28:03;99873.03;;;4.12;93.80
8894;BME280;4483;48.622;9.230;2023-02-12T05:30:30;99878.94;;;4.10;93.86
8894;BME280;4483;48.622;9.230;2023-02-12T05:32:57;99876.38;;;4.09;94.02
8894;BME280;4483;48.622;9.230;2023-02-12T05:35:23;99873.84;;;4.09;94.40
8894;BME280;4483;48.622;9.230;2023-02-12T05:37:50;99875.56;;;4.10;94.04
8894;BME280;4483;48.622;9.230;2023-02-12T05:40:18;99868.72;;;4.09;94.34
8894;BME280;4483;48.622;9.230;2023-02-12T05:42:44;99861.97;;;4.11;94.36
8894;BME280;4483;48.622;9.230;2023-02-12T05:45:11;99867.09;;;4.13;94.43
8894;BME280;4483;48.622;9.230;2023-02-12T05:47:38;99867.97;;;4.13;94.26
8894;BME280;4483;48.622;9.230;2023-02-12T05:50:05;99865.41;;;4.15;94.32
8894;BME280;4483;48.622;9.230;2023-02-12T05:52:32;99870.50;;;4.13;94.41
8894;BME280;4483;48.622;9.230;2023-02-12T05:54:59;99865.41;;;4.13;94.60
8894;BME280;4483;48.622;9.230;2023-02-12T05:57:27;99860.25;;;4.10;94.66
8894;BME280;4483;48.622;9.230;2023-02-12T05:59:53;99867.06;;;4.11;94.38
8894;BME280;4483;48.622;9.230;2023-02-12T06:02:20;99871.31;;;4.10;94.34
8894;BME280;4483;48.622;9.230;2023-02-12T06:04:47;99870.38;;;4.07;94.67
8894;BME280;4483;48.622;9.230;2023-02-12T06:07:13;99878.13;;;4.10;94.76
8894;BME280;4483;48.622;9.230;2023-02-12T06:09:40;99872.94;;;4.07;94.42
8894;BME280;4483;48.622;9.230;2023-02-12T06:12:06;99866.13;;;4.06;94.53
8894;BME280;4483;48.622;9.230;2023-02-12T06:14:34;99874.69;;;4.08;94.65
8894;BME280;4483;48.622;9.230;2023-02-12T06:17:01;99875.50;;;4.08;94.55
8894;BME280;4483;48.622;9.230;2023-02-12T06:19:27;99867.03;;;4.09;94.62
8894;BME280;4483;48.622;9.230;2023-02-12T06:21:54;99870.47;;;4.10;94.52
8894;BME280;4483;48.622;9.230;2023-02-12T06:24:20;99866.06;;;4.03;94.63
8894;BME280;4483;48.622;9.230;2023-02-12T06:26:48;99878.13;;;4.10;94.56
8894;BME280;4483;48.622;9.230;2023-02-12T06:29:15;99874.69;;;4.09;94.94
8894;BME280;4483;48.622;9.230;2023-02-12T06:31:43;99876.41;;;4.10;95.05
8894;BME280;4483;48.622;9.230;2023-02-12T06:34:11;99884.03;;;4.09;94.55
8894;BME280;4483;48.622;9.230;2023-02-12T06:36:39;99880.66;;;4.10;94.82
8894;BME280;4483;48.622;9.230;2023-02-12T06:39:06;99877.22;;;4.08;94.57
8894;BME280;4483;48.622;9.230;2023-02-12T06:41:33;99880.59;;;4.07;94.81
8894;BME280;4483;48.622;9.230;2023-02-12T06:43:59;99884.00;;;4.07;94.96
8894;BME280;4483;48.622;9.230;2023-02-12T06:46:26;99882.28;;;4.06;94.74
8894;BME280;4483;48.622;9.230;2023-02-12T06:48:54;99883.13;;;4.05;94.86
8894;BME280;4483;48.622;9.230;2023-02-12T06:51:22;99878.81;;;4.03;95.05
8894;BME280;4483;48.622;9.230;2023-02-12T06:53:49;99885.69;;;4.07;95.04
8894;BME280;4483;48.622;9.230;2023-02-12T06:56:17;99884.16;;;4.17;94.56
8894;BME280;4483;48.622;9.230;2023-02-12T06:58:45;99892.75;;;4.22;94.79
8894;BME280;4483;48.622;9.230;2023-02-12T07:01:14;99899.63;;;4.24;94.44
8894;BME280;4483;48.622;9.230;2023-02-12T07:03:43;99894.47;;;4.21;94.34
8894;BME280;4483;48.622;9.230;2023-02-12T07:06:13;99894.53;;;4.26;94.33
8894;BME280;4483;48.622;9.230;2023-02-12T07:08:40;99904.75;;;4.27;94.52
8894;BME280;4483;48.622;9.230;2023-02-12T07:11:07;99903.06;;;4.26;94.19
8894;BME280;4483;48.622;9.230;2023-02-12T07:13:33;99907.22;;;4.21;94.47
8894;BME280;4483;48.622;9.230;2023-02-12T07:16:03;99902.94;;;4.20;94.04
8894;BME280;4483;48.622;9.230;2023-02-12T07:18:30;99907.25;;;4.23;94.11
8894;BME280;4483;48.622;9.230;2023-02-12T07:20:56;99905.59;;;4.26;94.41
8894;BME280;4483;48.622;9.230;2023-02-12T07:23:25;99908.28;;;4.32;94.78
8894;BME280;4483;48.622;9.230;2023-02-12T07:25:55;99916.84;;;4.36;94.63
8894;BME280;4483;48.622;9.230;2023-02-12T07:28:21;99914.31;;;4.39;94.08
8894;BME280;4483;48.622;9.230;2023-02-12T07:30:48;99914.59;;;4.55;94.50
8894;BME280;4483;48.622;9.230;2023-02-12T07:33:15;99911.03;;;4.46;93.93
8894;BME280;4483;48.622;9.230;2023-02-12T07:35:42;99909.34;;;4.46;94.18
8894;BME280;4483;48.622;9.230;2023-02-12T07:38:09;99911.13;;;4.50;94.42
8894;BME280;4483;48.622;9.230;2023-02-12T07:40:37;99901.72;;;4.49;94.55
8894;BME280;4483;48.622;9.230;2023-02-12T07:43:04;99906.84;;;4.49;94.34
8894;BME280;4483;48.622;9.230;2023-02-12T07:45:30;99905.16;;;4.51;94.45
8894;BME280;4483;48.622;9.230;2023-02-12T07:47:57;99912.06;;;4.55;94.00
8894;BME280;4483;48.622;9.230;2023-02-12T07:50:23;99907.88;;;4.60;94.03
8894;BME280;4483;48.622;9.230;2023-02-12T07:52:51;99906.19;;;4.62;94.02
8894;BME280;4483;48.622;9.230;2023-02-12T07:55:17;99902.88;;;4.68;93.75
8894;BME280;4483;48.622;9.230;2023-02-12T07:57:45;99900.44;;;4.75;93.51
8894;BME280;4483;48.622;9.230;2023-02-12T08:00:13;99914.16;;;4.82;93.24
8894;BME280;4483;48.622;9.230;2023-02-12T08:02:40;99907.47;;;4.90;94.05
8894;BME280;4483;48.622;9.230;2023-02-12T08:05:07;99912.81;;;5.03;93.71
8894;BME280;4483;48.622;9.230;2023-02-12T08:07:33;99901.06;;;5.19;93.07
8894;BME280;4483;48.622;9.230;2023-02-12T08:10:00;99903.41;;;5.70;93.65
8894;BME280;4483;48.622;9.230;2023-02-12T08:12:26;99906.91;;;6.60;93.11
8894;BME280;4483;48.622;9.230;2023-02-12T08:14:54;99904.81;;;7.31;90.98
8894;BME280;4483;48.622;9.230;2023-02-12T08:17:21;99892.13;;;7.67;89.63
8894;BME280;4483;48.622;9.230;2023-02-12T08:19:47;99893.97;;;8.13;87.79
8894;BME280;4483;48.622;9.230;2023-02-12T08:22:14;99894.88;;;8.26;86.87
8894;BME280;4483;48.622;9.230;2023-02-12T08:24:41;99890.59;;;8.34;85.14
8894;BME280;4483;48.622;9.230;2023-02-12T08:27:07;99893.16;;;8.37;84.29
8894;BME280;4483;48.622;9.230;2023-02-12T08:29:34;99900.03;;;8.32;84.09
8894;BME280;4483;48.622;9.230;2023-02-12T08:32:02;99893.13;;;8.24;83.34
8894;BME280;4483;48.622;9.230;2023-02-12T08:34:32;99886.28;;;8.20;83.21
8894;BME280;4483;48.622;9.230;2023-02-12T08:37:00;99888.84;;;8.23;83.25
8894;BME280;4483;48.622;9.230;2023-02-12T08:39:28;99889.69;;;8.17;82.49
8894;BME280;4483;48.622;9.230;2023-02-12T08:41:55;99893.09;;;8.13;82.35
8894;BME280;4483;48.622;9.230;2023-02-12T08:44:23;99884.53;;;8.08;82.42
8894;BME280;4483;48.622;9.230;2023-02-12T08:46:51;99881.09;;;7.97;82.23
8894;BME280;4483;48.622;9.230;2023-02-12T08:49:22;99877.66;;;7.95;82.67
8894;BME280;4483;48.622;9.230;2023-02-12T08:51:50;99884.50;;;7.87;81.84
8894;BME280;4483;48.622;9.230;2023-02-12T08:54:19;99891.34;;;7.83;81.52
8894;BME280;4483;48.622;9.230;2023-02-12T08:56:46;99886.19;;;7.79;82.31
8894;BME280;4483;48.622;9.230;2023-02-12T08:59:14;99875.06;;;7.74;82.29
8894;BME280;4483;48.622;9.230;2023-02-12T09:01:41;99887.88;;;7.71;81.63
8894;BME280;4483;48.622;9.230;2023-02-12T09:04:12;99883.59;;;7.67;82.09
8894;BME280;4483;48.622;9.230;2023-02-12T09:06:41;99884.44;;;7.61;81.91
8894;BME280;4483;48.622;9.230;2023-02-12T09:09:07;99886.97;;;7.58;81.09
8894;BME280;4483;48.622;9.230;2023-02-12T09:11:34;99855.25;;;7.34;81.21
8894;BME280;4483;48.622;9.230;2023-02-12T09:14:04;99880.13;;;7.54;82.23
8894;BME280;4483;48.622;9.230;2023-02-12T09:16:33;99880.13;;;7.60;81.89
8894;BME280;4483;48.622;9.230;2023-02-12T09:18:59;99882.72;;;7.66;82.48
8894;BME280;4483;48.622;9.230;2023-02-12T09:21:26;99881.88;;;7.70;82.04
8894;BME280;4483;48.622;9.230;2023-02-12T09:23:54;99885.31;;;7.75;81.95
8894;BME280;4483;48.622;9.230;2023-02-12T09:26:22;99876.75;;;7.73;81.88
8894;BME280;4483;48.622;9.230;2023-02-12T09:28:51;99889.63;;;7.81;81.66
8894;BME280;4483;48.622;9.230;2023-02-12T09:31:19;99884.47;;;7.78;80.75
8894;BME280;4483;48.622;9.230;2023-02-12T09:33:47;99880.19;;;7.75;81.29
8894;BME280;4483;48.622;9.230;2023-02-12T09:36:15;99888.75;;;7.79;81.19
8894;BME280;4483;48.622;9.230;2023-02-12T09:38:43;99880.19;;;7.74;81.30
8894;BME280;4483;48.622;9.230;2023-02-12T09:41:23;99885.34;;;7.84;81.38
8894;BME280;4483;48.622;9.230;2023-02-12T09:43:57;99884.50;;;7.90;81.43
8894;BME280;4483;48.622;9.230;2023-02-12T09:46:29;99888.81;;;8.01;81.48
8894;BME280;4483;48.622;9.230;2023-02-12T09:49:06;99881.13;;;8.07;81.13
8894;BME280;4483;48.622;9.230;2023-02-12T09:51:34;99885.41;;;8.11;80.80
8894;BME280;4483;48.622;9.230;2023-02-12T09:54:04;99871.72;;;8.12;80.73
8894;BME280;4483;48.622;9.230;2023-02-12T09:56:33;99886.31;;;8.30;80.67
8894;BME280;4483;48.622;9.230;2023-02-12T09:59:03;99889.72;;;8.35;80.13
8894;BME280;4483;48.622;9.230;2023-02-12T10:01:30;99888.88;;;8.41;80.25
8894;BME280;4483;48.622;9.230;2023-02-12T10:03:58;99890.59;;;8.45;79.72
8894;BME280;4483;48.622;9.230;2023-02-12T10:06:26;99889.75;;;8.50;80.02
8894;BME280;4483;48.622;9.230;2023-02-12T10:09:18;99894.03;;;8.56;80.23
8894;BME280;4483;48.622;9.230;2023-02-12T10:11:59;99889.78;;;8.53;80.16
8894;BME280;4483;48.622;9.230;2023-02-12T10:14:52;99889.75;;;8.65;79.72
8894;BME280;4483;48.622;9.230;2023-02-12T10:17:28;99889.75;;;8.71;79.52
8894;BME280;4483;48.622;9.230;2023-02-12T10:20:27;99888.00;;;8.81;79.18
8894;BME280;4483;48.622;9.230;2023-02-12T10:23:05;99893.19;;;8.82;79.14
8894;BME280;4483;48.622;9.230;2023-02-12T10:25:43;99888.03;;;8.84;78.81
8894;BME280;4483;48.622;9.230;2023-02-12T10:28:15;99889.75;;;8.88;79.07
8894;BME280;4483;48.622;9.230;2023-02-12T10:30:46;99880.28;;;8.88;77.98
8894;BME280;4483;48.622;9.230;2023-02-12T10:33:16;99884.59;;;8.89;78.78
8894;BME280;4483;48.622;9.230;2023-02-12T10:35:47;99879.41;;;8.95;78.81
8894;BME280;4483;48.622;9.230;2023-02-12T10:38:17;99884.56;;;9.01;78.87
8894;BME280;4483;48.622;9.230;2023-02-12T10:40:45;99873.38;;;9.14;78.92
8894;BME280;4483;48.622;9.230;2023-02-12T10:43:16;99864.75;;;9.29;78.47
8894;BME280;4483;48.622;9.230;2023-02-12T10:45:42;99863.91;;;9.32;77.36
8894;BME280;4483;48.622;9.230;2023-02-12T10:48:12;99868.16;;;9.34;76.75
8894;BME280;4483;48.622;9.230;2023-02-12T10:50:50;99866.47;;;9.29;75.77
8894;BME280;4483;48.622;9.230;2023-02-12T10:53:22;99855.38;;;9.21;77.44
8894;BME280;4483;48.622;9.230;2023-02-12T10:56:05;99854.50;;;9.23;76.85
8894;BME280;4483;48.622;9.230;2023-02-12T10:58:36;99851.09;;;9.18;76.19
8894;BME280;4483;48.622;9.230;2023-02-12T11:01:11;99862.22;;;9.22;76.81
8894;BME280;4483;48.622;9.230;2023-02-12T11:03:40;99851.06;;;9.21;77.41
8894;BME280;4483;48.622;9.230;2023-02-12T11:06:12;99845.91;;;9.21;77.34
8894;BME280;4483;48.622;9.230;2023-02-12T11:08:42;99850.19;;;9.30;77.83
8894;BME280;4483;48.622;9.230;2023-02-12T11:11:10;99839.00;;;9.38;77.68
8894;BME280;4483;48.622;9.230;2023-02-12T11:13:43;99845.00;;;9.45;77.05
8894;BME280;4483;48.622;9.230;2023-02-12T11:16:10;99839.84;;;9.40;76.99
8894;BME280;4483;48.622;9.230;2023-02-12T11:18:37;99845.00;;;9.45;77.08
8894;BME280;4483;48.622;9.230;2023-02-12T11:21:05;99839.81;;;9.48;77.44
8894;BME280;4483;48.622;9.230;2023-02-12T11:23:34;99821.81;;;9.46;77.42
8894;BME280;4483;48.622;9.230;2023-02-12T11:26:04;99841.47;;;9.58;77.25
8894;BME280;4483;48.622;9.230;2023-02-12T11:28:34;99838.03;;;9.62;76.80
8894;BME280;4483;48.622;9.230;2023-02-12T11:31:19;99834.56;;;9.69;76.68
8894;BME280;4483;48.622;9.230;2023-02-12T11:34:05;99834.59;;;9.66;75.60
8894;BME280;4483;48.622;9.230;2023-02-12T11:36:35;99831.16;;;9.64;76.16
8894;BME280;4483;48.622;9.230;2023-02-12T11:39:03;99834.59;;;9.63;76.18
8894;BME280;4483;48.622;9.230;2023-02-12T11:41:33;99838.91;;;9.62;77.09
8894;BME280;4483;48.622;9.230;2023-02-12T11:44:02;99835.44;;;9.66;76.17
8894;BME280;4483;48.622;9.230;2023-02-12T11:46:35;99837.19;;;9.58;76.51
8894;BME280;4483;48.622;9.230;2023-02-12T11:49:04;99840.59;;;9.66;76.93
8894;BME280;4483;48.622;9.230;2023-02-12T11:51:35;99828.56;;;9.68;76.52
8894;BME280;4483;48.622;9.230;2023-02-12T11:54:02;99830.25;;;9.71;76.55
8894;BME280;4483;48.622;9.230;2023-02-12T11:56:40;99824.25;;;9.72;76.91
8894;BME280;4483;48.622;9.230;2023-02-12T11:59:15;99829.38;;;9.75;76.62
8894;BME280;4483;48.622;9.230;2023-02-12T12:01:47;99822.47;;;9.80;76.99
8894;BME280;4483;48.622;9.230;2023-02-12T12:04:18;99826.75;;;9.84;77.30
8894;BME280;4483;48.622;9.230;2023-02-12T12:06:50;99813.88;;;9.87;76.97
8894;BME280;4483;48.622;9.230;2023-02-12T12:09:23;99818.97;;;9.96;77.17
8894;BME280;4483;48.622;9.230;2023-02-12T12:11:57;99820.59;;;10.09;77.00
8894;BME280;4483;48.622;9.230;2023-02-12T12:14:28;99815.38;;;10.20;76.65
8894;BME280;4483;48.622;9.230;2023-02-12T12:17:01;99817.88;;;10.26;76.53
8894;BME280;4483;48.622;9.230;2023-02-12T12:19:51;99815.31;;;10.29;76.83
8894;BME280;4483;48.622;9.230;2023-02-12T12:22:30;99810.97;;;10.32;75.30
8894;BME280;4483;48.622;9.230;2023-02-12T12:25:07;99811.69;;;10.49;75.40
8894;BME280;4483;48.622;9.230;2023-02-12T12:27:40;99801.34;;;10.54;75.32
8894;BME280;4483;48.622;9.230;2023-02-12T12:30:36;99805.59;;;10.58;75.08
8894;BME280;4483;48.622;9.230;2023-02-12T12:33:20;99806.47;;;10.58;74.01
8894;BME280;4483;48.622;9.230;2023-02-12T12:36:01;99803.88;;;10.57;74.34
8894;BME280;4483;48.622;9.230;2023-02-12T12:38:39;99809.84;;;10.63;74.59
8894;BME280;4483;48.622;9.230;2023-02-12T12:41:19;99803.03;;;10.56;74.54
8894;BME280;4483;48.622;9.230;2023-02-12T12:44:00;99803.97;;;10.46;74.31
8894;BME280;4483;48.622;9.230;2023-02-12T12:46:52;99797.94;;;10.50;74.51
8894;BME280;4483;48.622;9.230;2023-02-12T12:49:44;99797.03;;;10.54;73.79
8894;BME280;4483;48.622;9.230;2023-02-12T12:52:30;99797.78;;;10.65;74.32
8894;BME280;4483;48.622;9.230;2023-02-12T12:55:14;99794.28;;;10.72;73.48
8894;BME280;4483;48.622;9.230;2023-02-12T12:57:49;99797.81;;;10.62;72.50
8894;BME280;4483;48.622;9.230;2023-02-12T13:00:28;99797.88;;;10.58;73.54
8894;BME280;4483;48.622;9.230;2023-02-12T13:03:27;99797.06;;;10.51;73.83
8894;BME280;4483;48.622;9.230;2023-02-12T13:06:25;99790.16;;;10.56;73.77
8894;BME280;4483;48.622;9.230;2023-02-12T13:09:10;99793.72;;;10.43;73.95
8894;BME280;4483;48.622;9.230;2023-02-12T13:11:50;99786.84;;;10.41;74.55
8894;BME280;4483;48.622;9.230;2023-02-12T13:14:32;99788.53;;;10.45;74.11
8894;BME280;4483;48.622;9.230;2023-02-12T13:17:06;99785.88;;;10.52;73.26
8894;BME280;4483;48.622;9.230;2023-02-12T13:19:43;99773.41;;;10.93;73.23
8894;BME280;4483;48.622;9.230;2023-02-12T13:22:17;99770.81;;;11.60;72.74
8894;BME280;4483;48.622;9.230;2023-02-12T13:24:51;99763.63;;;11.83;70.59
8894;BME280;4483;48.622;9.230;2023-02-12T13:27:23;99761.31;;;12.20;70.25
8894;BME280;4483;48.622;9.230;2023-02-12T13:29:53;99763.91;;;12.67;66.98
8894;BME280;4483;48.622;9.230;2023-02-12T13:32:27;99752.75;;;12.64;68.23
8894;BME280;4483;48.622;9.230;2023-02-12T13:34:56;99761.56;;;12.55;67.82
8894;BME280;4483;48.622;9.230;2023-02-12T13:37:34;99758.00;;;12.61;66.12
8894;BME280;4483;48.622;9.230;2023-02-12T13:40:03;99761.78;;;12.87;64.75
8894;BME280;4483;48.622;9.230;2023-02-12T13:42:41;99758.94;;;13.01;63.49
8894;BME280;4483;48.622;9.230;2023-02-12T13:45:20;99747.03;;;12.92;64.65
8894;BME280;4483;48.622;9.230;2023-02-12T13:48:02;99749.91;;;13.22;64.62
8894;BME280;4483;48.622;9.230;2023-02-12T13:50:39;99750.41;;;13.39;63.63
8894;BME280;4483;48.622;9.230;2023-02-12T13:53:17;99752.38;;;13.67;63.27
8894;BME280;4483;48.622;9.230;2023-02-12T13:56:05;99744.78;;;13.20;61.96